createdAt,value
2023-05-03T00:01:32.932Z,10.38
2023-05-03T00:03:59.444Z,10.33
2023-05-03T00:06:26.829Z,10.24
2023-05-03T00:08:53.506Z,10.19
2023-05-03T00:11:19.938Z,10.12
2023-05-03T00:13:46.620Z,10.07
2023-05-03T00:16:13.157Z,10.03
2023-05-03T00:18:39.744Z,10.05
2023-05-03T00:21:06.240Z,10.04
2023-05-03T00:23:32.657Z,10.03
2023-05-03T00:25:59.284Z,10.01
2023-05-03T00:28:26.869Z,9.98
2023-05-03T00:30:53.916Z,9.92
2023-05-03T00:33:20.509Z,9.97
2023-05-03T00:35:47.103Z,9.94
2023-05-03T00:38:15.434Z,9.94
2023-05-03T00:40:41.909Z,9.93
2023-05-03T00:43:11.580Z,9.92
2023-05-03T00:45:38.282Z,9.88
2023-05-03T00:48:04.882Z,9.81
2023-05-03T00:50:31.440Z,9.72
2023-05-03T00:52:58.174Z,9.72
2023-05-03T00:55:26.193Z,9.67
2023-05-03T00:57:52.736Z,9.66
2023-05-03T01:00:20.331Z,9.66
2023-05-03T01:02:47.031Z,9.62
2023-05-03T01:05:13.739Z,9.67
2023-05-03T01:07:55.562Z,9.69
2023-05-03T01:10:31.091Z,9.68
2023-05-03T01:13:16.264Z,9.66
2023-05-03T01:16:12.668Z,9.63
2023-05-03T01:18:44.066Z,9.55
2023-05-03T01:21:13.204Z,9.52
2023-05-03T01:24:03.748Z,9.54
2023-05-03T01:26:30.243Z,9.49
2023-05-03T01:28:56.852Z,9.49
2023-05-03T01:31:38.410Z,9.50
2023-05-03T01:34:21.884Z,9.56
2023-05-03T01:36:49.747Z,9.49
2023-05-03T01:39:24.730Z,9.46
2023-05-03T01:41:52.832Z,9.40
2023-05-03T01:44:22.094Z,9.37
2023-05-03T01:46:49.626Z,9.37
2023-05-03T01:49:16.414Z,9.33
2023-05-03T01:51:42.892Z,9.28
2023-05-03T01:54:09.341Z,9.25
2023-05-03T01:56:36.857Z,9.22
2023-05-03T01:59:03.974Z,9.13
2023-05-03T02:01:30.701Z,9.19
2023-05-03T02:03:57.227Z,9.16
2023-05-03T02:06:27.133Z,9.13
2023-05-03T02:08:54.314Z,9.11
2023-05-03T02:11:21.479Z,9.10
2023-05-03T02:13:50.422Z,9.09
2023-05-03T02:16:18.038Z,9.02
2023-05-03T02:18:44.695Z,9.08
2023-05-03T02:21:11.289Z,9.06
2023-05-03T02:23:37.741Z,9.06
2023-05-03T02:26:04.195Z,9.06
2023-05-03T02:28:30.653Z,8.89
2023-05-03T02:30:57.267Z,9.08
2023-05-03T02:33:23.887Z,9.09
2023-05-03T02:35:50.817Z,9.10
2023-05-03T02:38:17.421Z,9.12
2023-05-03T02:40:43.937Z,9.15
2023-05-03T02:43:10.495Z,9.13
2023-05-03T02:45:37.387Z,9.13
2023-05-03T02:48:04.057Z,9.13
2023-05-03T02:50:31.135Z,9.16
2023-05-03T02:52:57.656Z,9.16
2023-05-03T02:55:24.491Z,9.18
2023-05-03T02:57:50.957Z,9.20
2023-05-03T03:00:19.567Z,9.17
2023-05-03T03:02:46.471Z,9.14
2023-05-03T03:05:13.067Z,9.13
2023-05-03T03:07:43.810Z,9.11
2023-05-03T03:10:10.670Z,9.11
2023-05-03T03:12:38.007Z,9.06
2023-05-03T03:15:07.810Z,9.04
2023-05-03T03:17:38.934Z,8.99
2023-05-03T03:20:11.661Z,8.90
2023-05-03T03:22:41.148Z,8.96
2023-05-03T03:25:08.262Z,8.94
2023-05-03T03:27:35.260Z,9.00
2023-05-03T03:30:02.880Z,9.01
2023-05-03T03:32:33.759Z,9.04
2023-05-03T03:35:02.594Z,9.05
2023-05-03T03:37:30.805Z,9.09
2023-05-03T03:39:57.272Z,9.10
2023-05-03T03:42:25.754Z,9.12
2023-05-03T03:44:52.800Z,9.13
2023-05-03T03:47:19.364Z,9.12
2023-05-03T03:49:45.998Z,9.14
2023-05-03T03:52:12.608Z,9.17
2023-05-03T03:54:39.432Z,9.12
2023-05-03T03:57:05.989Z,9.11
2023-05-03T03:59:33.388Z,9.11
2023-05-03T04:02:00.090Z,9.13
2023-05-03T04:04:26.800Z,9.13
2023-05-03T04:06:55.222Z,9.18
2023-05-03T04:09:24.722Z,9.22
2023-05-03T04:11:51.313Z,9.24
2023-05-03T04:14:18.239Z,9.26
2023-05-03T04:16:45.698Z,9.28
2023-05-03T04:19:12.230Z,9.30
2023-05-03T04:21:40.873Z,9.29
2023-05-03T04:24:07.737Z,9.26
2023-05-03T04:26:35.212Z,9.27
2023-05-03T04:29:12.466Z,9.26
2023-05-03T04:31:40.275Z,9.26
2023-05-03T04:34:07.727Z,9.23
2023-05-03T04:36:35.311Z,9.20
2023-05-03T04:39:01.836Z,9.20
2023-05-03T04:41:28.294Z,9.17
2023-05-03T04:43:55.169Z,9.19
2023-05-03T04:46:21.793Z,9.22
2023-05-03T04:48:49.634Z,9.23
2023-05-03T04:51:17.653Z,9.24
2023-05-03T04:53:45.567Z,9.25
2023-05-03T04:56:16.333Z,9.27
2023-05-03T04:58:44.563Z,9.31
2023-05-03T05:01:12.544Z,9.34
2023-05-03T05:03:39.179Z,9.38
2023-05-03T05:06:12.409Z,9.45
2023-05-03T05:08:40.660Z,9.50
2023-05-03T05:11:10.689Z,9.52
2023-05-03T05:13:37.254Z,9.54
2023-05-03T05:16:04.015Z,9.56
2023-05-03T05:18:31.524Z,9.56
2023-05-03T05:21:01.385Z,9.52
2023-05-03T05:23:29.348Z,9.54
2023-05-03T05:26:00.361Z,9.55
2023-05-03T05:28:29.664Z,9.58
2023-05-03T05:30:56.178Z,9.63
2023-05-03T05:33:22.920Z,9.66
2023-05-03T05:35:49.980Z,9.75
2023-05-03T05:38:19.908Z,9.82
2023-05-03T05:40:46.807Z,9.87
2023-05-03T05:43:13.337Z,9.96
2023-05-03T05:45:42.908Z,10.04
2023-05-03T05:48:09.368Z,10.15
2023-05-03T05:50:36.495Z,10.18
2023-05-03T05:53:09.082Z,10.22
2023-05-03T05:55:39.510Z,10.31
2023-05-03T05:58:06.097Z,10.32
2023-05-03T06:00:39.393Z,10.31
2023-05-03T06:03:06.015Z,10.31
2023-05-03T06:05:32.550Z,10.32
2023-05-03T06:07:59.106Z,10.32
2023-05-03T06:10:26.223Z,10.38
2023-05-03T06:12:55.272Z,10.41
2023-05-03T06:15:24.349Z,10.39
2023-05-03T06:17:50.845Z,10.34
2023-05-03T06:20:18.382Z,10.31
2023-05-03T06:22:46.481Z,10.29
2023-05-03T06:25:16.195Z,10.37
2023-05-03T06:27:45.786Z,10.41
2023-05-03T06:30:12.805Z,10.43
2023-05-03T06:32:41.856Z,10.42
2023-05-03T06:35:12.518Z,10.50
2023-05-03T06:37:40.077Z,10.51
2023-05-03T06:40:07.584Z,10.53
2023-05-03T06:42:36.262Z,10.57
2023-05-03T06:45:08.300Z,10.56
2023-05-03T06:47:37.511Z,10.65
2023-05-03T06:50:04.993Z,10.65
2023-05-03T06:52:31.928Z,10.67
2023-05-03T06:54:58.707Z,10.71
2023-05-03T06:57:27.031Z,10.71
2023-05-03T06:59:55.247Z,10.72
2023-05-03T07:02:21.757Z,10.68
2023-05-03T07:04:48.198Z,10.57
2023-05-03T07:07:15.855Z,10.65
2023-05-03T07:09:43.665Z,10.65
2023-05-03T07:12:11.399Z,10.75
2023-05-03T07:14:39.592Z,10.77
2023-05-03T07:17:06.465Z,10.76
2023-05-03T07:19:32.984Z,10.76
2023-05-03T07:21:59.463Z,10.78
2023-05-03T07:24:26.236Z,10.75
2023-05-03T07:26:53.729Z,10.74
2023-05-03T07:29:21.035Z,10.70
2023-05-03T07:31:47.703Z,10.72
2023-05-03T07:34:14.268Z,10.68
2023-05-03T07:36:40.968Z,10.64
2023-05-03T07:39:07.792Z,10.61
2023-05-03T07:41:34.301Z,10.66
2023-05-03T07:44:00.897Z,10.67
2023-05-03T07:46:27.472Z,10.73
2023-05-03T07:48:53.948Z,10.72
2023-05-03T07:51:20.981Z,10.76
2023-05-03T07:53:47.488Z,10.79
2023-05-03T07:56:13.974Z,10.84
2023-05-03T07:58:41.077Z,10.92
2023-05-03T08:01:08.296Z,11.03
2023-05-03T08:03:34.951Z,11.07
2023-05-03T08:06:01.808Z,11.14
2023-05-03T08:08:28.445Z,11.19
2023-05-03T08:10:54.989Z,11.24
2023-05-03T08:13:22.703Z,11.31
2023-05-03T08:15:50.128Z,11.43
2023-05-03T08:18:16.819Z,11.48
2023-05-03T08:20:44.882Z,11.50
2023-05-03T08:23:11.361Z,11.62
2023-05-03T08:25:37.921Z,11.73
2023-05-03T08:28:04.591Z,11.83
2023-05-03T08:30:31.421Z,11.95
2023-05-03T08:32:58.070Z,12.06
2023-05-03T08:35:24.692Z,12.19
2023-05-03T08:37:51.155Z,12.33
2023-05-03T08:40:17.760Z,12.50
2023-05-03T08:42:45.544Z,12.59
2023-05-03T08:45:15.875Z,12.68
2023-05-03T08:47:45.743Z,12.77
2023-05-03T08:50:14.153Z,12.96
2023-05-03T08:52:42.630Z,13.10
2023-05-03T08:55:10.616Z,13.21
2023-05-03T08:57:37.767Z,13.30
2023-05-03T09:00:12.997Z,13.37
2023-05-03T09:02:40.710Z,13.40
2023-05-03T09:05:16.327Z,13.61
2023-05-03T09:08:09.963Z,13.88
2023-05-03T09:10:41.247Z,13.99
2023-05-03T09:13:08.105Z,14.05
2023-05-03T09:15:35.440Z,14.20
2023-05-03T09:18:10.624Z,14.20
2023-05-03T09:20:39.746Z,14.39
2023-05-03T09:23:10.189Z,14.52
2023-05-03T09:25:57.597Z,14.64
2023-05-03T09:28:25.254Z,14.80
2023-05-03T09:31:04.505Z,14.95
2023-05-03T09:33:31.008Z,15.16
2023-05-03T09:36:03.357Z,15.30
2023-05-03T09:38:32.340Z,15.57
2023-05-03T09:40:59.236Z,15.83
2023-05-03T09:43:26.032Z,16.05
2023-05-03T09:45:52.928Z,16.22
2023-05-03T09:48:23.569Z,16.10
2023-05-03T09:50:51.179Z,15.94
2023-05-03T09:53:21.505Z,16.00
2023-05-03T09:55:50.813Z,16.00
2023-05-03T09:58:18.627Z,15.99
2023-05-03T10:00:46.460Z,15.96
2023-05-03T10:03:20.069Z,15.93
2023-05-03T10:05:48.423Z,15.90
2023-05-03T10:08:38.743Z,15.89
2023-05-03T10:11:08.901Z,15.79
2023-05-03T10:13:36.265Z,15.82
2023-05-03T10:16:09.266Z,16.01
2023-05-03T10:18:43.773Z,16.03
2023-05-03T10:21:16.368Z,15.97
2023-05-03T10:24:15.884Z,16.16
2023-05-03T10:26:47.617Z,16.47
2023-05-03T10:29:36.059Z,16.79
2023-05-03T10:32:26.034Z,16.98
2023-05-03T10:35:07.891Z,17.37
2023-05-03T10:37:36.087Z,17.36
2023-05-03T10:40:16.323Z,17.16
2023-05-03T10:42:50.536Z,17.04
2023-05-03T10:45:28.480Z,16.88
2023-05-03T10:48:13.023Z,16.84
2023-05-03T10:50:40.613Z,17.28
2023-05-03T10:53:07.583Z,17.40
2023-05-03T10:55:34.758Z,17.28
2023-05-03T10:58:03.497Z,17.00
2023-05-03T11:00:33.963Z,16.83
2023-05-03T11:03:35.750Z,16.92
2023-05-03T11:06:03.318Z,17.27
2023-05-03T11:08:37.633Z,17.45
2023-05-03T11:11:09.834Z,17.32
2023-05-03T11:13:36.985Z,17.29
2023-05-03T11:16:07.941Z,17.45
2023-05-03T11:18:34.562Z,17.83
2023-05-03T11:21:01.536Z,18.08
2023-05-03T11:23:29.158Z,18.44
2023-05-03T11:25:57.784Z,18.82
2023-05-03T11:28:25.780Z,19.14
2023-05-03T11:30:52.448Z,19.32
2023-05-03T11:33:18.996Z,19.49
2023-05-03T11:35:45.711Z,19.62
2023-05-03T11:38:12.144Z,19.86
2023-05-03T11:40:39.634Z,20.11
2023-05-03T11:43:09.631Z,19.95
2023-05-03T11:45:45.470Z,19.87
2023-05-03T11:48:13.856Z,20.11
2023-05-03T11:50:51.579Z,20.36
2023-05-03T11:53:19.302Z,20.14
2023-05-03T11:55:48.189Z,20.18
2023-05-03T11:58:17.624Z,20.44
2023-05-03T12:00:46.840Z,20.77
2023-05-03T12:03:18.547Z,20.91
2023-05-03T12:05:46.317Z,20.62
2023-05-03T12:08:15.162Z,20.12
2023-05-03T12:10:42.855Z,19.83
2023-05-03T12:13:10.008Z,19.82
2023-05-03T12:15:40.528Z,20.16
2023-05-03T12:18:12.439Z,20.05
2023-05-03T12:23:10.516Z,19.59
2023-05-03T12:25:39.649Z,20.03
2023-05-03T12:28:19.827Z,20.60
2023-05-03T12:30:47.877Z,20.98
2023-05-03T12:33:16.614Z,20.94
2023-05-03T12:35:47.283Z,20.89
2023-05-03T12:38:16.438Z,21.15
2023-05-03T12:40:45.378Z,20.95
2023-05-03T12:43:12.447Z,20.74
2023-05-03T12:45:40.796Z,20.32
2023-05-03T12:48:08.388Z,19.96
2023-05-03T12:53:08.599Z,19.53
2023-05-03T12:55:41.894Z,19.99
2023-05-03T13:00:49.152Z,20.98
2023-05-03T13:03:32.511Z,20.90
2023-05-03T13:06:00.715Z,20.64
2023-05-03T13:08:33.854Z,20.75
2023-05-03T13:11:01.824Z,20.69
2023-05-03T13:13:28.608Z,20.67
2023-05-03T13:15:55.363Z,21.02
2023-05-03T13:18:22.787Z,21.18
2023-05-03T13:20:50.406Z,21.41
2023-05-03T13:23:16.875Z,21.80
2023-05-03T13:25:44.472Z,22.13
2023-05-03T13:28:10.925Z,22.39
2023-05-03T13:30:37.333Z,22.07
2023-05-03T13:33:03.871Z,21.47
2023-05-03T13:35:30.892Z,20.99
2023-05-03T13:37:57.805Z,20.53
2023-05-03T13:40:24.632Z,20.27
2023-05-03T13:42:51.320Z,20.60
2023-05-03T13:45:18.487Z,21.28
2023-05-03T13:50:14.959Z,22.27
2023-05-03T13:52:42.500Z,22.12
2023-05-03T13:55:09.188Z,21.54
2023-05-03T13:57:36.166Z,21.50
2023-05-03T14:00:02.918Z,21.71
2023-05-03T14:02:33.010Z,21.96
2023-05-03T14:04:59.444Z,22.13
2023-05-03T14:07:25.865Z,22.23
2023-05-03T14:09:52.278Z,22.39
2023-05-03T14:12:18.692Z,22.74
2023-05-03T14:14:46.022Z,22.97
2023-05-03T14:17:13.151Z,22.67
2023-05-03T14:19:39.807Z,22.22
2023-05-03T14:22:06.302Z,21.73
2023-05-03T14:24:32.805Z,21.21
2023-05-03T14:27:00.166Z,20.82
2023-05-03T14:29:27.264Z,20.43
2023-05-03T14:31:54.033Z,20.13
2023-05-03T14:34:20.563Z,19.85
2023-05-03T14:36:47.002Z,19.64
2023-05-03T14:39:16.573Z,19.86
2023-05-03T14:41:45.944Z,20.24
2023-05-03T14:44:12.445Z,20.81
2023-05-03T14:46:38.975Z,21.53
2023-05-03T14:49:05.488Z,21.84
2023-05-03T14:51:32.787Z,21.70
2023-05-03T14:53:59.476Z,21.43
2023-05-03T14:56:26.458Z,21.11
2023-05-03T14:58:53.250Z,20.63
2023-05-03T15:01:20.471Z,20.10
2023-05-03T15:03:47.353Z,19.70
2023-05-03T15:06:14.007Z,19.42
2023-05-03T15:08:41.196Z,19.13
2023-05-03T15:11:07.821Z,18.99
2023-05-03T15:13:34.886Z,18.79
2023-05-03T15:16:01.463Z,18.73
2023-05-03T15:18:27.960Z,18.93
2023-05-03T15:20:54.611Z,19.53
2023-05-03T15:23:21.067Z,20.06
2023-05-03T15:25:48.075Z,20.53
2023-05-03T15:28:14.484Z,20.94
2023-05-03T15:30:41.222Z,21.32
2023-05-03T15:33:10.588Z,21.80
2023-05-03T15:35:40.235Z,22.03
2023-05-03T15:38:07.623Z,22.13
2023-05-03T15:40:34.119Z,22.29
2023-05-03T15:43:01.039Z,22.51
2023-05-03T15:45:28.370Z,22.57
2023-05-03T15:47:56.417Z,22.70
2023-05-03T15:50:22.922Z,22.94
2023-05-03T15:52:49.443Z,23.02
2023-05-03T15:55:17.417Z,22.81
2023-05-03T15:57:43.851Z,22.02
2023-05-03T16:00:12.620Z,21.29
2023-05-03T16:02:40.151Z,20.73
2023-05-03T16:05:07.169Z,20.21
2023-05-03T16:07:33.846Z,19.73
2023-05-03T16:10:00.792Z,19.37
2023-05-03T16:12:27.895Z,19.00
2023-05-03T16:14:55.506Z,18.73
2023-05-03T16:17:22.094Z,18.50
2023-05-03T16:19:48.722Z,18.47
2023-05-03T16:22:15.388Z,18.91
2023-05-03T16:24:41.876Z,19.39
2023-05-03T16:27:08.329Z,19.79
2023-05-03T16:29:36.912Z,20.10
2023-05-03T16:32:06.165Z,20.26
2023-05-03T16:34:32.817Z,20.51
2023-05-03T16:36:59.265Z,20.70
2023-05-03T16:39:25.932Z,20.83
2023-05-03T16:41:52.398Z,20.82
2023-05-03T16:44:19.258Z,20.89
2023-05-03T16:46:46.771Z,20.87
2023-05-03T16:49:13.391Z,20.73
2023-05-03T16:51:41.050Z,20.54
2023-05-03T16:54:07.606Z,20.26
2023-05-03T16:56:34.134Z,19.76
2023-05-03T16:59:00.612Z,19.37
2023-05-03T17:01:27.172Z,19.02
2023-05-03T17:03:53.764Z,18.64
2023-05-03T17:06:20.419Z,18.35
2023-05-03T17:08:47.005Z,18.22
2023-05-03T17:11:14.414Z,18.01
2023-05-03T17:13:41.492Z,17.93
2023-05-03T17:16:09.865Z,17.85
2023-05-03T17:18:38.563Z,17.91
2023-05-03T17:21:05.776Z,18.13
2023-05-03T17:23:36.162Z,18.38
2023-05-03T17:26:04.238Z,18.60
2023-05-03T17:28:32.572Z,18.83
2023-05-03T17:30:59.699Z,19.12
2023-05-03T17:33:26.743Z,19.41
2023-05-03T17:35:53.647Z,19.73
2023-05-03T17:38:20.161Z,20.26
2023-05-03T17:40:46.676Z,21.40
2023-05-03T17:43:13.951Z,22.34
2023-05-03T17:45:43.694Z,23.03
2023-05-03T17:48:11.217Z,23.19
2023-05-03T17:50:37.948Z,23.51
2023-05-03T17:53:04.495Z,23.48
2023-05-03T17:55:34.928Z,22.92
2023-05-03T17:58:01.532Z,21.99
2023-05-03T18:00:28.028Z,21.17
2023-05-03T18:02:54.593Z,20.47
2023-05-03T18:05:21.051Z,19.91
2023-05-03T18:07:47.503Z,19.42
2023-05-03T18:10:16.326Z,18.94
2023-05-03T18:12:43.568Z,18.61
2023-05-03T18:15:10.724Z,18.34
2023-05-03T18:17:37.430Z,18.08
2023-05-03T18:20:06.126Z,17.88
2023-05-03T18:22:32.894Z,17.59
2023-05-03T18:25:01.813Z,17.38
2023-05-03T18:27:28.851Z,17.06
2023-05-03T18:29:55.361Z,16.86
2023-05-03T18:32:23.555Z,16.69
2023-05-03T18:34:49.980Z,16.50
2023-05-03T18:37:16.579Z,16.35
2023-05-03T18:39:43.047Z,16.19
2023-05-03T18:42:10.332Z,16.03
2023-05-03T18:44:38.438Z,15.93
2023-05-03T18:47:05.197Z,15.81
2023-05-03T18:49:31.752Z,15.68
2023-05-03T18:51:58.196Z,15.56
2023-05-03T18:54:24.608Z,15.49
2023-05-03T18:56:51.734Z,15.42
2023-05-03T18:59:18.344Z,15.34
2023-05-03T19:01:44.865Z,15.26
2023-05-03T19:04:11.383Z,15.20
2023-05-03T19:06:37.905Z,15.13
2023-05-03T19:09:04.339Z,15.11
2023-05-03T19:11:30.824Z,15.07
2023-05-03T19:13:57.253Z,15.00
2023-05-03T19:16:23.699Z,14.95
2023-05-03T19:18:50.156Z,14.87
2023-05-03T19:21:17.414Z,14.78
2023-05-03T19:23:44.486Z,14.73
2023-05-03T19:26:10.961Z,14.68
2023-05-03T19:28:37.374Z,14.65
2023-05-03T19:31:04.927Z,14.62
2023-05-03T19:33:31.797Z,14.56
2023-05-03T19:35:58.313Z,14.55
2023-05-03T19:38:24.723Z,14.48
2023-05-03T19:40:58.210Z,14.44
2023-05-03T19:43:25.429Z,14.42
2023-05-03T19:45:52.609Z,14.38
2023-05-03T19:48:19.072Z,14.36
2023-05-03T19:50:45.500Z,14.35
2023-05-03T19:53:12.666Z,14.29
2023-05-03T19:55:39.135Z,14.25
2023-05-03T19:58:05.622Z,14.20
2023-05-03T20:00:32.093Z,14.18
2023-05-03T20:02:58.592Z,14.13
2023-05-03T20:05:25.177Z,14.06
2023-05-03T20:07:52.978Z,14.02
2023-05-03T20:10:19.359Z,14.01
2023-05-03T20:12:45.836Z,13.99
2023-05-03T20:15:12.395Z,13.94
2023-05-03T20:17:38.878Z,13.92
2023-05-03T20:20:12.315Z,13.88
2023-05-03T20:22:38.815Z,13.86
2023-05-03T20:25:05.941Z,13.80
2023-05-03T20:27:32.438Z,13.80
2023-05-03T20:29:59.315Z,13.76
2023-05-03T20:32:25.883Z,13.73
2023-05-03T20:34:52.308Z,13.69
2023-05-03T20:37:18.748Z,13.66
2023-05-03T20:39:45.244Z,13.64
2023-05-03T20:42:11.673Z,13.63
2023-05-03T20:44:38.330Z,13.59
2023-05-03T20:47:05.187Z,13.59
2023-05-03T20:49:31.646Z,13.56
2023-05-03T20:51:58.037Z,13.51
2023-05-03T20:54:24.988Z,13.45
2023-05-03T20:56:51.520Z,13.43
2023-05-03T20:59:17.975Z,13.36
2023-05-03T21:01:44.489Z,13.32
2023-05-03T21:04:11.182Z,13.29
2023-05-03T21:06:38.316Z,13.26
2023-05-03T21:09:05.851Z,13.23
2023-05-03T21:11:32.293Z,13.23
2023-05-03T21:14:01.077Z,13.23
2023-05-03T21:16:28.586Z,13.21
2023-05-03T21:18:55.562Z,13.18
2023-05-03T21:21:22.014Z,13.14
2023-05-03T21:23:48.433Z,13.13
2023-05-03T21:26:14.845Z,13.09
2023-05-03T21:28:41.330Z,13.07
2023-05-03T21:31:08.050Z,13.05
2023-05-03T21:33:34.886Z,13.02
2023-05-03T21:36:01.364Z,12.99
2023-05-03T21:38:28.163Z,12.95
2023-05-03T21:41:04.919Z,12.90
2023-05-03T21:43:32.407Z,12.88
2023-05-03T21:45:58.957Z,12.84
2023-05-03T21:48:25.399Z,12.81
2023-05-03T21:50:51.972Z,12.76
2023-05-03T21:53:18.420Z,12.74
2023-05-03T21:55:48.042Z,12.71
2023-05-03T21:58:14.588Z,12.69
2023-05-03T22:00:42.238Z,12.69
2023-05-03T22:03:09.048Z,12.63
2023-05-03T22:05:38.368Z,12.61
2023-05-03T22:08:05.992Z,12.58
2023-05-03T22:10:33.107Z,12.52
2023-05-03T22:13:00.050Z,12.39
2023-05-03T22:15:26.570Z,12.40
2023-05-03T22:17:53.090Z,12.34
2023-05-03T22:20:19.852Z,12.29
2023-05-03T22:22:46.361Z,12.27
2023-05-03T22:25:25.163Z,12.22
2023-05-03T22:27:52.154Z,12.16
2023-05-03T22:30:19.117Z,12.09
2023-05-03T22:32:46.769Z,11.91
2023-05-03T22:35:16.140Z,12.02
2023-05-03T22:37:42.617Z,11.97
2023-05-03T22:40:09.538Z,11.93
2023-05-03T22:42:36.110Z,11.92
2023-05-03T22:45:03.296Z,11.87
2023-05-03T22:47:29.781Z,11.87
2023-05-03T22:49:56.728Z,11.81
2023-05-03T22:52:23.279Z,11.77
2023-05-03T22:54:54.838Z,11.72
2023-05-03T22:57:21.236Z,11.71
2023-05-03T22:59:47.646Z,11.73
2023-05-03T23:02:14.701Z,11.74
2023-05-03T23:04:41.165Z,11.72
2023-05-03T23:07:07.697Z,11.69
2023-05-03T23:09:34.152Z,11.67
2023-05-03T23:12:00.636Z,11.63
2023-05-03T23:14:27.067Z,11.59
2023-05-03T23:16:53.582Z,11.54
2023-05-03T23:19:20.101Z,11.53
2023-05-03T23:21:46.532Z,11.54
2023-05-03T23:24:12.958Z,11.52
2023-05-03T23:26:39.512Z,11.49
2023-05-03T23:29:06.640Z,11.48
2023-05-03T23:31:34.134Z,11.47
2023-05-03T23:34:04.822Z,11.46
2023-05-03T23:36:32.248Z,11.44
2023-05-03T23:38:58.654Z,11.41
2023-05-03T23:41:25.135Z,11.41
2023-05-03T23:43:51.816Z,11.38
2023-05-03T23:46:18.290Z,11.37
2023-05-03T23:48:44.779Z,11.34
2023-05-03T23:51:11.204Z,11.31
2023-05-03T23:53:37.669Z,11.30
2023-05-03T23:56:04.242Z,11.30
2023-05-03T23:58:30.974Z,11.27
